sensor_id;sensor_type;location;lat;lon;timestamp;temperature;humidity
1570;DHT22;778;50.120;8.698;2022-07-23T00:02:00;22.90;99.90
1570;DHT22;778;50.120;8.698;2022-07-23T00:04:29;22.70;99.90
1570;DHT22;778;50.120;8.698;2022-07-23T00:06:57;22.60;99.90
1570;DHT22;778;50.120;8.698;2022-07-23T00:09:26;22.50;99.90
1570;DHT22;778;50.120;8.698;2022-07-23T00:11:59;22.50;99.90
1570;DHT22;778;50.120;8.698;2022-07-23T00:14:27;22.40;99.90
1570;DHT22;778;50.120;8.698;2022-07-23T00:16:56;22.30;99.90
1570;DHT22;778;50.120;8.698;2022-07-23T00:19:24;22.40;99.90
1570;DHT22;778;50.120;8.698;2022-07-23T00:21:53;22.30;99.90
1570;DHT22;778;50.120;8.698;2022-07-23T00:24:21;22.30;99.90
1570;DHT22;778;50.120;8.698;2022-07-23T00:26:50;22.30;99.90
1570;DHT22;778;50.120;8.698;2022-07-23T00:29:20;22.10;99.90
1570;DHT22;778;50.120;8.698;2022-07-23T00:31:48;22.20;99.90
1570;DHT22;778;50.120;8.698;2022-07-23T00:34:16;22.20;99.90
1570;DHT22;778;50.120;8.698;2022-07-23T00:36:45;22.10;99.90
1570;DHT22;778;50.120;8.698;2022-07-23T00:39:13;22.20;99.90
1570;DHT22;778;50.120;8.698;2022-07-23T00:41:42;22.20;99.90
1570;DHT22;778;50.120;8.698;2022-07-23T00:44:20;22.10;99.90
1570;DHT22;778;50.120;8.698;2022-07-23T00:46:52;22.10;99.90
1570;DHT22;778;50.120;8.698;2022-07-23T00:49:22;22.10;99.90
1570;DHT22;778;50.120;8.698;2022-07-23T00:51:52;22.10;99.90
1570;DHT22;778;50.120;8.698;2022-07-23T00:54:23;22.00;99.90
1570;DHT22;778;50.120;8.698;2022-07-23T00:56:54;21.80;99.90
1570;DHT22;778;50.120;8.698;2022-07-23T00:59:24;22.20;99.90
1570;DHT22;778;50.120;8.698;2022-07-23T01:01:52;22.00;99.90
1570;DHT22;778;50.120;8.698;2022-07-23T01:04:21;21.90;99.90
1570;DHT22;778;50.120;8.698;2022-07-23T01:06:49;22.00;99.90
1570;DHT22;778;50.120;8.698;2022-07-23T01:09:18;22.00;99.90
1570;DHT22;778;50.120;8.698;2022-07-23T01:11:47;21.70;99.90
1570;DHT22;778;50.120;8.698;2022-07-23T01:14:17;21.90;99.90
1570;DHT22;778;50.120;8.698;2022-07-23T01:16:48;21.80;99.90
1570;DHT22;778;50.120;8.698;2022-07-23T01:19:18;21.90;99.90
1570;DHT22;778;50.120;8.698;2022-07-23T01:21:47;21.80;99.90
1570;DHT22;778;50.120;8.698;2022-07-23T01:24:18;21.60;99.90
1570;DHT22;778;50.120;8.698;2022-07-23T01:26:55;21.70;99.90
1570;DHT22;778;50.120;8.698;2022-07-23T01:29:25;21.50;99.90
1570;DHT22;778;50.120;8.698;2022-07-23T01:31:54;21.60;99.90
1570;DHT22;778;50.120;8.698;2022-07-23T01:34:23;21.60;99.90
1570;DHT22;778;50.120;8.698;2022-07-23T01:36:51;21.70;99.90
1570;DHT22;778;50.120;8.698;2022-07-23T01:39:21;21.80;99.90
1570;DHT22;778;50.120;8.698;2022-07-23T01:41:51;21.80;99.90
1570;DHT22;778;50.120;8.698;2022-07-23T01:44:20;21.90;99.90
1570;DHT22;778;50.120;8.698;2022-07-23T01:46:49;21.90;99.90
1570;DHT22;778;50.120;8.698;2022-07-23T01:49:19;21.80;99.90
1570;DHT22;778;50.120;8.698;2022-07-23T01:52:22;21.70;99.90
1570;DHT22;778;50.120;8.698;2022-07-23T01:54:52;21.70;99.90
1570;DHT22;778;50.120;8.698;2022-07-23T01:57:21;21.60;99.90
1570;DHT22;778;50.120;8.698;2022-07-23T01:59:49;21.60;99.90
1570;DHT22;778;50.120;8.698;2022-07-23T02:02:20;21.40;99.90
1570;DHT22;778;50.120;8.698;2022-07-23T02:04:48;21.50;99.90
1570;DHT22;778;50.120;8.698;2022-07-23T02:07:19;21.50;99.90
1570;DHT22;778;50.120;8.698;2022-07-23T02:09:48;21.60;99.90
1570;DHT22;778;50.120;8.698;2022-07-23T02:12:18;21.50;99.90
1570;DHT22;778;50.120;8.698;2022-07-23T02:14:46;21.40;99.90
1570;DHT22;778;50.120;8.698;2022-07-23T02:17:15;21.50;99.90
1570;DHT22;778;50.120;8.698;2022-07-23T02:19:43;21.70;99.90
1570;DHT22;778;50.120;8.698;2022-07-23T02:22:12;21.60;99.90
1570;DHT22;778;50.120;8.698;2022-07-23T02:24:40;21.50;99.90
1570;DHT22;778;50.120;8.698;2022-07-23T02:27:09;21.60;99.90
1570;DHT22;778;50.120;8.698;2022-07-23T02:29:39;21.50;99.90
1570;DHT22;778;50.120;8.698;2022-07-23T02:32:07;21.40;99.90
1570;DHT22;778;50.120;8.698;2022-07-23T02:34:36;21.40;99.90
1570;DHT22;778;50.120;8.698;2022-07-23T02:37:04;21.40;99.90
1570;DHT22;778;50.120;8.698;2022-07-23T02:39:33;21.50;99.90
1570;DHT22;778;50.120;8.698;2022-07-23T02:42:01;21.30;99.90
1570;DHT22;778;50.120;8.698;2022-07-23T02:44:31;21.20;99.90
1570;DHT22;778;50.120;8.698;2022-07-23T02:47:02;21.20;99.90
1570;DHT22;778;50.120;8.698;2022-07-23T02:49:33;21.20;99.90
1570;DHT22;778;50.120;8.698;2022-07-23T02:52:04;21.10;99.90
1570;DHT22;778;50.120;8.698;2022-07-23T02:54:33;21.20;99.90
1570;DHT22;778;50.120;8.698;2022-07-23T02:57:03;21.20;99.90
1570;DHT22;778;50.120;8.698;2022-07-23T02:59:31;21.10;99.90
1570;DHT22;778;50.120;8.698;2022-07-23T03:04:35;21.10;99.90
1570;DHT22;778;50.120;8.698;2022-07-23T03:07:04;21.10;99.90
1570;DHT22;778;50.120;8.698;2022-07-23T03:09:32;21.20;99.90
1570;DHT22;778;50.120;8.698;2022-07-23T03:12:01;21.30;99.90
1570;DHT22;778;50.120;8.698;2022-07-23T03:14:30;21.30;99.90
1570;DHT22;778;50.120;8.698;2022-07-23T03:16:58;21.40;99.90
1570;DHT22;778;50.120;8.698;2022-07-23T03:19:27;21.30;99.90
1570;DHT22;778;50.120;8.698;2022-07-23T03:21:57;21.20;99.90
1570;DHT22;778;50.120;8.698;2022-07-23T03:24:26;21.20;99.90
1570;DHT22;778;50.120;8.698;2022-07-23T03:27:16;21.20;99.90
1570;DHT22;778;50.120;8.698;2022-07-23T03:29:44;21.10;99.90
1570;DHT22;778;50.120;8.698;2022-07-23T03:32:13;21.10;99.90
1570;DHT22;778;50.120;8.698;2022-07-23T03:34:42;21.10;99.90
1570;DHT22;778;50.120;8.698;2022-07-23T03:37:12;21.10;99.90
1570;DHT22;778;50.120;8.698;2022-07-23T03:39:42;21.10;99.90
1570;DHT22;778;50.120;8.698;2022-07-23T03:42:11;21.10;99.90
1570;DHT22;778;50.120;8.698;2022-07-23T03:44:40;21.20;99.90
1570;DHT22;778;50.120;8.698;2022-07-23T03:47:08;21.00;99.90
1570;DHT22;778;50.120;8.698;2022-07-23T03:49:37;21.10;99.90
1570;DHT22;778;50.120;8.698;2022-07-23T03:52:05;21.10;99.90
1570;DHT22;778;50.120;8.698;2022-07-23T03:54:35;21.00;99.90
1570;DHT22;778;50.120;8.698;2022-07-23T03:57:04;21.10;99.90
1570;DHT22;778;50.120;8.698;2022-07-23T03:59:32;21.20;99.90
1570;DHT22;778;50.120;8.698;2022-07-23T04:02:01;21.20;99.90
1570;DHT22;778;50.120;8.698;2022-07-23T04:04:29;21.20;99.90
1570;DHT22;778;50.120;8.698;2022-07-23T04:06:58;21.20;99.90
1570;DHT22;778;50.120;8.698;2022-07-23T04:09:29;20.90;99.90
1570;DHT22;778;50.120;8.698;2022-07-23T04:11:59;20.80;99.90
1570;DHT22;778;50.120;8.698;2022-07-23T04:14:28;20.70;99.90
1570;DHT22;778;50.120;8.698;2022-07-23T04:16:57;20.50;99.90
1570;DHT22;778;50.120;8.698;2022-07-23T04:19:26;20.50;99.90
1570;DHT22;778;50.120;8.698;2022-07-23T04:22:01;20.50;99.90
1570;DHT22;778;50.120;8.698;2022-07-23T04:24:32;20.60;99.90
1570;DHT22;778;50.120;8.698;2022-07-23T04:27:02;20.50;99.90
1570;DHT22;778;50.120;8.698;2022-07-23T04:29:31;20.40;99.90
1570;DHT22;778;50.120;8.698;2022-07-23T04:32:00;20.50;99.90
1570;DHT22;778;50.120;8.698;2022-07-23T04:34:29;20.30;99.90
1570;DHT22;778;50.120;8.698;2022-07-23T04:36:58;20.20;99.90
1570;DHT22;778;50.120;8.698;2022-07-23T04:39:29;20.40;99.90
1570;DHT22;778;50.120;8.698;2022-07-23T04:41:58;20.70;99.90
1570;DHT22;778;50.120;8.698;2022-07-23T04:44:30;20.90;99.90
1570;DHT22;778;50.120;8.698;2022-07-23T04:46:58;21.00;99.90
1570;DHT22;778;50.120;8.698;2022-07-23T04:49:28;21.00;99.90
1570;DHT22;778;50.120;8.698;2022-07-23T04:51:56;21.10;99.90
1570;DHT22;778;50.120;8.698;2022-07-23T04:54:25;21.20;99.90
1570;DHT22;778;50.120;8.698;2022-07-23T04:56:53;21.10;99.90
1570;DHT22;778;50.120;8.698;2022-07-23T04:59:22;21.10;99.90
1570;DHT22;778;50.120;8.698;2022-07-23T05:01:58;21.20;99.90
1570;DHT22;778;50.120;8.698;2022-07-23T05:04:26;21.20;99.90
1570;DHT22;778;50.120;8.698;2022-07-23T05:06:56;21.20;99.90
1570;DHT22;778;50.120;8.698;2022-07-23T05:09:24;21.10;99.90
1570;DHT22;778;50.120;8.698;2022-07-23T05:11:53;21.20;99.90
1570;DHT22;778;50.120;8.698;2022-07-23T05:14:22;21.40;99.90
1570;DHT22;778;50.120;8.698;2022-07-23T05:16:51;21.30;99.90
1570;DHT22;778;50.120;8.698;2022-07-23T05:19:23;21.40;99.90
1570;DHT22;778;50.120;8.698;2022-07-23T05:21:52;21.20;99.90
1570;DHT22;778;50.120;8.698;2022-07-23T05:24:21;20.90;99.90
1570;DHT22;778;50.120;8.698;2022-07-23T05:26:51;20.80;99.90
1570;DHT22;778;50.120;8.698;2022-07-23T05:29:19;20.70;99.90
1570;DHT22;778;50.120;8.698;2022-07-23T05:31:48;20.70;99.90
1570;DHT22;778;50.120;8.698;2022-07-23T05:34:17;20.60;99.90
1570;DHT22;778;50.120;8.698;2022-07-23T05:36:48;20.60;99.90
1570;DHT22;778;50.120;8.698;2022-07-23T05:39:16;20.70;99.90
1570;DHT22;778;50.120;8.698;2022-07-23T05:41:45;20.60;99.90
1570;DHT22;778;50.120;8.698;2022-07-23T05:44:14;20.50;99.90
1570;DHT22;778;50.120;8.698;2022-07-23T05:46:44;20.40;99.90
1570;DHT22;778;50.120;8.698;2022-07-23T05:49:18;20.40;99.90
1570;DHT22;778;50.120;8.698;2022-07-23T05:51:50;20.40;99.90
1570;DHT22;778;50.120;8.698;2022-07-23T05:54:28;20.40;99.90
1570;DHT22;778;50.120;8.698;2022-07-23T05:56:56;20.40;99.90
1570;DHT22;778;50.120;8.698;2022-07-23T05:59:25;20.40;99.90
1570;DHT22;778;50.120;8.698;2022-07-23T06:01:54;20.50;99.90
1570;DHT22;778;50.120;8.698;2022-07-23T06:04:23;20.60;99.90
1570;DHT22;778;50.120;8.698;2022-07-23T06:07:28;20.60;99.90
1570;DHT22;778;50.120;8.698;2022-07-23T06:09:57;20.80;99.90
1570;DHT22;778;50.120;8.698;2022-07-23T06:12:25;20.70;99.90
1570;DHT22;778;50.120;8.698;2022-07-23T06:14:54;20.60;99.90
1570;DHT22;778;50.120;8.698;2022-07-23T06:17:23;20.60;99.90
1570;DHT22;778;50.120;8.698;2022-07-23T06:19:52;20.60;99.90
1570;DHT22;778;50.120;8.698;2022-07-23T06:22:21;20.70;99.90
1570;DHT22;778;50.120;8.698;2022-07-23T06:24:51;21.20;99.90
1570;DHT22;778;50.120;8.698;2022-07-23T06:27:20;21.60;99.90
1570;DHT22;778;50.120;8.698;2022-07-23T06:29:53;22.00;99.90
1570;DHT22;778;50.120;8.698;2022-07-23T06:32:21;22.30;99.90
1570;DHT22;778;50.120;8.698;2022-07-23T06:34:50;22.40;99.90
1570;DHT22;778;50.120;8.698;2022-07-23T06:37:20;22.60;99.90
1570;DHT22;778;50.120;8.698;2022-07-23T06:39:50;22.80;99.90
1570;DHT22;778;50.120;8.698;2022-07-23T06:42:19;23.00;99.90
1570;DHT22;778;50.120;8.698;2022-07-23T06:44:55;23.10;99.90
1570;DHT22;778;50.120;8.698;2022-07-23T06:47:24;23.30;99.90
1570;DHT22;778;50.120;8.698;2022-07-23T06:49:52;23.20;99.90
1570;DHT22;778;50.120;8.698;2022-07-23T06:52:24;23.40;99.90
1570;DHT22;778;50.120;8.698;2022-07-23T06:54:54;23.60;99.90
1570;DHT22;778;50.120;8.698;2022-07-23T06:57:22;23.70;99.90
1570;DHT22;778;50.120;8.698;2022-07-23T06:59:52;24.00;99.90
1570;DHT22;778;50.120;8.698;2022-07-23T07:02:22;24.40;99.90
1570;DHT22;778;50.120;8.698;2022-07-23T07:04:50;24.80;99.90
1570;DHT22;778;50.120;8.698;2022-07-23T07:07:20;25.00;99.90
1570;DHT22;778;50.120;8.698;2022-07-23T07:09:48;25.50;99.90
1570;DHT22;778;50.120;8.698;2022-07-23T07:12:18;25.30;99.90
1570;DHT22;778;50.120;8.698;2022-07-23T07:14:47;25.10;99.90
1570;DHT22;778;50.120;8.698;2022-07-23T07:17:15;25.30;99.90
1570;DHT22;778;50.120;8.698;2022-07-23T07:19:44;25.10;99.90
1570;DHT22;778;50.120;8.698;2022-07-23T07:22:12;24.80;99.90
1570;DHT22;778;50.120;8.698;2022-07-23T07:24:41;24.90;99.90
1570;DHT22;778;50.120;8.698;2022-07-23T07:27:09;24.80;99.90
1570;DHT22;778;50.120;8.698;2022-07-23T07:29:39;25.00;99.90
1570;DHT22;778;50.120;8.698;2022-07-23T07:32:07;25.00;99.90
1570;DHT22;778;50.120;8.698;2022-07-23T07:34:36;25.60;99.90
1570;DHT22;778;50.120;8.698;2022-07-23T07:37:04;25.60;99.90
1570;DHT22;778;50.120;8.698;2022-07-23T07:39:33;25.80;99.90
1570;DHT22;778;50.120;8.698;2022-07-23T07:42:01;25.60;99.90
1570;DHT22;778;50.120;8.698;2022-07-23T07:44:30;26.10;99.90
1570;DHT22;778;50.120;8.698;2022-07-23T07:47:00;26.30;99.90
1570;DHT22;778;50.120;8.698;2022-07-23T07:49:28;26.50;99.90
1570;DHT22;778;50.120;8.698;2022-07-23T07:52:01;26.70;98.60
1570;DHT22;778;50.120;8.698;2022-07-23T07:54:29;26.70;99.70
1570;DHT22;778;50.120;8.698;2022-07-23T07:56:59;26.50;98.90
1570;DHT22;778;50.120;8.698;2022-07-23T07:59:28;26.40;98.80
1570;DHT22;778;50.120;8.698;2022-07-23T08:02:01;25.80;99.90
1570;DHT22;778;50.120;8.698;2022-07-23T08:04:30;26.30;99.90
1570;DHT22;778;50.120;8.698;2022-07-23T08:06:58;26.30;99.40
1570;DHT22;778;50.120;8.698;2022-07-23T08:09:27;26.30;99.30
1570;DHT22;778;50.120;8.698;2022-07-23T08:11:55;26.60;98.70
1570;DHT22;778;50.120;8.698;2022-07-23T08:14:24;26.90;98.20
1570;DHT22;778;50.120;8.698;2022-07-23T08:16:52;27.20;97.20
1570;DHT22;778;50.120;8.698;2022-07-23T08:19:41;27.50;96.10
1570;DHT22;778;50.120;8.698;2022-07-23T08:22:10;27.00;96.30
1570;DHT22;778;50.120;8.698;2022-07-23T08:24:38;26.90;97.00
1570;DHT22;778;50.120;8.698;2022-07-23T08:27:07;27.30;96.90
1570;DHT22;778;50.120;8.698;2022-07-23T08:29:35;27.20;96.40
1570;DHT22;778;50.120;8.698;2022-07-23T08:32:04;27.00;96.90
1570;DHT22;778;50.120;8.698;2022-07-23T08:34:54;27.00;96.70
1570;DHT22;778;50.120;8.698;2022-07-23T08:37:23;27.10;96.00
1570;DHT22;778;50.120;8.698;2022-07-23T08:39:51;27.10;95.90
1570;DHT22;778;50.120;8.698;2022-07-23T08:42:21;26.80;96.30
1570;DHT22;778;50.120;8.698;2022-07-23T08:44:49;26.90;96.30
1570;DHT22;778;50.120;8.698;2022-07-23T08:47:18;27.30;95.50
1570;DHT22;778;50.120;8.698;2022-07-23T08:49:47;27.20;94.30
1570;DHT22;778;50.120;8.698;2022-07-23T08:52:17;27.40;94.70
1570;DHT22;778;50.120;8.698;2022-07-23T08:54:53;27.70;93.80
1570;DHT22;778;50.120;8.698;2022-07-23T08:57:22;27.40;94.10
1570;DHT22;778;50.120;8.698;2022-07-23T08:59:51;27.70;93.90
1570;DHT22;778;50.120;8.698;2022-07-23T09:02:19;27.50;93.40
1570;DHT22;778;50.120;8.698;2022-07-23T09:04:48;27.40;93.40
1570;DHT22;778;50.120;8.698;2022-07-23T09:07:18;27.80;92.80
1570;DHT22;778;50.120;8.698;2022-07-23T09:09:46;28.00;92.60
1570;DHT22;778;50.120;8.698;2022-07-23T09:12:15;28.50;90.70
1570;DHT22;778;50.120;8.698;2022-07-23T09:14:44;28.80;90.20
1570;DHT22;778;50.120;8.698;2022-07-23T09:17:15;29.10;88.50
1570;DHT22;778;50.120;8.698;2022-07-23T09:19:45;28.80;88.80
1570;DHT22;778;50.120;8.698;2022-07-23T09:22:19;29.00;88.00
1570;DHT22;778;50.120;8.698;2022-07-23T09:25:07;28.70;87.30
1570;DHT22;778;50.120;8.698;2022-07-23T09:27:50;28.30;88.70
1570;DHT22;778;50.120;8.698;2022-07-23T09:30:22;28.50;87.80
1570;DHT22;778;50.120;8.698;2022-07-23T09:33:06;28.90;84.40
1570;DHT22;778;50.120;8.698;2022-07-23T09:35:46;29.00;80.90
1570;DHT22;778;50.120;8.698;2022-07-23T09:38:19;29.20;79.00
1570;DHT22;778;50.120;8.698;2022-07-23T09:41:07;28.40;81.70
1570;DHT22;778;50.120;8.698;2022-07-23T09:43:36;28.20;82.40
1570;DHT22;778;50.120;8.698;2022-07-23T09:46:22;27.90;83.00
1570;DHT22;778;50.120;8.698;2022-07-23T09:48:53;28.40;83.70
1570;DHT22;778;50.120;8.698;2022-07-23T09:51:23;28.70;80.10
1570;DHT22;778;50.120;8.698;2022-07-23T09:54:00;28.10;79.20
1570;DHT22;778;50.120;8.698;2022-07-23T09:56:31;28.00;80.50
1570;DHT22;778;50.120;8.698;2022-07-23T09:59:02;28.30;80.50
1570;DHT22;778;50.120;8.698;2022-07-23T10:01:32;28.60;81.50
1570;DHT22;778;50.120;8.698;2022-07-23T10:04:01;29.10;79.50
1570;DHT22;778;50.120;8.698;2022-07-23T10:06:52;29.20;77.40
1570;DHT22;778;50.120;8.698;2022-07-23T10:09:43;29.50;75.60
1570;DHT22;778;50.120;8.698;2022-07-23T10:12:31;29.70;73.50
1570;DHT22;778;50.120;8.698;2022-07-23T10:15:23;29.50;73.10
1570;DHT22;778;50.120;8.698;2022-07-23T10:17:53;29.70;72.50
1570;DHT22;778;50.120;8.698;2022-07-23T10:20:21;29.60;72.00
1570;DHT22;778;50.120;8.698;2022-07-23T10:22:59;29.40;75.30
1570;DHT22;778;50.120;8.698;2022-07-23T10:25:40;29.60;73.30
1570;DHT22;778;50.120;8.698;2022-07-23T10:28:25;29.90;75.20
1570;DHT22;778;50.120;8.698;2022-07-23T10:31:20;29.90;71.50
1570;DHT22;778;50.120;8.698;2022-07-23T10:34:21;29.90;73.40
1570;DHT22;778;50.120;8.698;2022-07-23T10:36:57;30.00;72.40
1570;DHT22;778;50.120;8.698;2022-07-23T10:39:31;30.20;71.30
1570;DHT22;778;50.120;8.698;2022-07-23T10:42:13;30.20;76.00
1570;DHT22;778;50.120;8.698;2022-07-23T10:44:43;30.10;70.40
1570;DHT22;778;50.120;8.698;2022-07-23T10:47:20;30.20;71.60
1570;DHT22;778;50.120;8.698;2022-07-23T10:50:18;30.20;72.00
1570;DHT22;778;50.120;8.698;2022-07-23T10:53:08;30.10;70.20
1570;DHT22;778;50.120;8.698;2022-07-23T10:55:41;29.70;68.70
1570;DHT22;778;50.120;8.698;2022-07-23T10:58:18;29.40;69.50
1570;DHT22;778;50.120;8.698;2022-07-23T11:00:48;29.30;70.40
1570;DHT22;778;50.120;8.698;2022-07-23T11:03:32;29.20;69.60
1570;DHT22;778;50.120;8.698;2022-07-23T11:06:04;28.70;71.50
1570;DHT22;778;50.120;8.698;2022-07-23T11:08:34;28.70;71.40
1570;DHT22;778;50.120;8.698;2022-07-23T11:11:10;29.10;70.40
1570;DHT22;778;50.120;8.698;2022-07-23T11:13:46;29.10;73.30
1570;DHT22;778;50.120;8.698;2022-07-23T11:16:25;29.30;70.00
1570;DHT22;778;50.120;8.698;2022-07-23T11:19:05;29.50;71.60
1570;DHT22;778;50.120;8.698;2022-07-23T11:21:48;29.50;70.10
1570;DHT22;778;50.120;8.698;2022-07-23T11:24:20;29.80;67.30
1570;DHT22;778;50.120;8.698;2022-07-23T11:27:01;29.90;67.90
1570;DHT22;778;50.120;8.698;2022-07-23T11:29:43;29.80;67.10
1570;DHT22;778;50.120;8.698;2022-07-23T11:32:32;29.70;66.90
1570;DHT22;778;50.120;8.698;2022-07-23T11:35:23;29.60;66.40
1570;DHT22;778;50.120;8.698;2022-07-23T11:38:04;29.80;66.40
1570;DHT22;778;50.120;8.698;2022-07-23T11:40:34;30.20;65.30
1570;DHT22;778;50.120;8.698;2022-07-23T11:43:05;30.40;64.50
1570;DHT22;778;50.120;8.698;2022-07-23T11:45:38;30.00;63.60
1570;DHT22;778;50.120;8.698;2022-07-23T11:48:09;29.70;65.40
1570;DHT22;778;50.120;8.698;2022-07-23T11:50:44;29.90;66.70
1570;DHT22;778;50.120;8.698;2022-07-23T11:53:13;29.70;69.10
1570;DHT22;778;50.120;8.698;2022-07-23T11:55:44;29.60;69.70
1570;DHT22;778;50.120;8.698;2022-07-23T11:58:13;29.60;68.50
1570;DHT22;778;50.120;8.698;2022-07-23T12:00:42;29.70;65.70
1570;DHT22;778;50.120;8.698;2022-07-23T12:03:11;29.50;68.20
1570;DHT22;778;50.120;8.698;2022-07-23T12:05:40;29.50;68.30
1570;DHT22;778;50.120;8.698;2022-07-23T12:08:09;29.20;67.70
1570;DHT22;778;50.120;8.698;2022-07-23T12:10:40;29.20;67.40
1570;DHT22;778;50.120;8.698;2022-07-23T12:13:11;29.30;66.00
1570;DHT22;778;50.120;8.698;2022-07-23T12:15:43;29.70;65.30
1570;DHT22;778;50.120;8.698;2022-07-23T12:18:14;29.70;65.10
1570;DHT22;778;50.120;8.698;2022-07-23T12:20:46;29.50;67.40
1570;DHT22;778;50.120;8.698;2022-07-23T12:23:18;29.50;67.50
1570;DHT22;778;50.120;8.698;2022-07-23T12:25:48;29.40;67.50
1570;DHT22;778;50.120;8.698;2022-07-23T12:28:19;29.70;66.00
1570;DHT22;778;50.120;8.698;2022-07-23T12:30:51;29.60;66.40
1570;DHT22;778;50.120;8.698;2022-07-23T12:33:25;29.50;66.50
1570;DHT22;778;50.120;8.698;2022-07-23T12:35:57;29.30;67.10
1570;DHT22;778;50.120;8.698;2022-07-23T12:38:28;29.60;66.20
1570;DHT22;778;50.120;8.698;2022-07-23T12:41:06;29.40;65.90
1570;DHT22;778;50.120;8.698;2022-07-23T12:43:37;30.00;63.40
1570;DHT22;778;50.120;8.698;2022-07-23T12:46:09;29.80;63.50
1570;DHT22;778;50.120;8.698;2022-07-23T12:48:51;29.70;62.30
1570;DHT22;778;50.120;8.698;2022-07-23T12:51:23;29.40;63.10
1570;DHT22;778;50.120;8.698;2022-07-23T12:53:54;29.30;62.90
1570;DHT22;778;50.120;8.698;2022-07-23T12:56:28;29.30;64.20
1570;DHT22;778;50.120;8.698;2022-07-23T12:59:04;29.20;65.60
1570;DHT22;778;50.120;8.698;2022-07-23T13:01:40;29.10;66.80
1570;DHT22;778;50.120;8.698;2022-07-23T13:04:11;29.20;65.10
1570;DHT22;778;50.120;8.698;2022-07-23T13:06:42;29.30;63.40
1570;DHT22;778;50.120;8.698;2022-07-23T13:09:16;29.30;66.70
1570;DHT22;778;50.120;8.698;2022-07-23T13:11:46;29.50;63.10
1570;DHT22;778;50.120;8.698;2022-07-23T13:14:15;29.50;66.90
1570;DHT22;778;50.120;8.698;2022-07-23T13:16:50;29.60;64.50
1570;DHT22;778;50.120;8.698;2022-07-23T13:19:20;29.30;65.60
1570;DHT22;778;50.120;8.698;2022-07-23T13:21:50;29.40;63.00
1570;DHT22;778;50.120;8.698;2022-07-23T13:24:20;29.20;63.00
1570;DHT22;778;50.120;8.698;2022-07-23T13:26:49;29.20;64.60
1570;DHT22;778;50.120;8.698;2022-07-23T13:29:19;29.20;65.00
1570;DHT22;778;50.120;8.698;2022-07-23T13:31:49;29.30;63.80
1570;DHT22;778;50.120;8.698;2022-07-23T13:34:18;28.90;63.40
1570;DHT22;778;50.120;8.698;2022-07-23T13:36:46;28.70;65.30
1570;DHT22;778;50.120;8.698;2022-07-23T13:39:15;28.70;63.90
1570;DHT22;778;50.120;8.698;2022-07-23T13:41:45;28.70;67.90
1570;DHT22;778;50.120;8.698;2022-07-23T13:44:17;28.80;64.90
1570;DHT22;778;50.120;8.698;2022-07-23T13:46:50;28.80;66.30
1570;DHT22;778;50.120;8.698;2022-07-23T13:49:18;28.90;64.70
1570;DHT22;778;50.120;8.698;2022-07-23T13:51:48;29.00;63.70
1570;DHT22;778;50.120;8.698;2022-07-23T13:54:17;28.80;64.10
1570;DHT22;778;50.120;8.698;2022-07-23T13:56:46;29.00;63.60
1570;DHT22;778;50.120;8.698;2022-07-23T13:59:15;29.20;63.50
1570;DHT22;778;50.120;8.698;2022-07-23T14:01:44;29.40;63.70
1570;DHT22;778;50.120;8.698;2022-07-23T14:04:34;29.40;63.40
1570;DHT22;778;50.120;8.698;2022-07-23T14:07:02;29.30;62.20
1570;DHT22;778;50.120;8.698;2022-07-23T14:09:31;29.30;63.00
1570;DHT22;778;50.120;8.698;2022-07-23T14:12:01;29.40;64.50
1570;DHT22;778;50.120;8.698;2022-07-23T14:14:29;29.30;65.60
1570;DHT22;778;50.120;8.698;2022-07-23T14:16:58;29.40;64.60
1570;DHT22;778;50.120;8.698;2022-07-23T14:19:27;29.50;64.70
1570;DHT22;778;50.120;8.698;2022-07-23T14:21:58;29.30;65.10
1570;DHT22;778;50.120;8.698;2022-07-23T14:24:27;29.30;61.80
1570;DHT22;778;50.120;8.698;2022-07-23T14:27:00;29.40;64.80
1570;DHT22;778;50.120;8.698;2022-07-23T14:29:29;29.20;65.00
1570;DHT22;778;50.120;8.698;2022-07-23T14:31:59;29.10;61.80
1570;DHT22;778;50.120;8.698;2022-07-23T14:34:28;29.10;63.50
1570;DHT22;778;50.120;8.698;2022-07-23T14:36:58;29.10;61.20
1570;DHT22;778;50.120;8.698;2022-07-23T14:39:27;29.00;62.20
1570;DHT22;778;50.120;8.698;2022-07-23T14:41:56;29.10;64.30
1570;DHT22;778;50.120;8.698;2022-07-23T14:44:24;29.10;61.20
1570;DHT22;778;50.120;8.698;2022-07-23T14:46:54;29.00;61.00
1570;DHT22;778;50.120;8.698;2022-07-23T14:49:23;29.00;61.20
1570;DHT22;778;50.120;8.698;2022-07-23T14:51:53;29.00;61.80
1570;DHT22;778;50.120;8.698;2022-07-23T14:54:24;29.10;63.00
1570;DHT22;778;50.120;8.698;2022-07-23T14:56:54;29.10;61.40
1570;DHT22;778;50.120;8.698;2022-07-23T14:59:23;29.20;61.10
1570;DHT22;778;50.120;8.698;2022-07-23T15:01:52;29.30;61.20
1570;DHT22;778;50.120;8.698;2022-07-23T15:04:25;29.60;59.00
1570;DHT22;778;50.120;8.698;2022-07-23T15:07:04;29.50;60.80
1570;DHT22;778;50.120;8.698;2022-07-23T15:09:34;29.30;61.00
1570;DHT22;778;50.120;8.698;2022-07-23T15:12:03;29.20;62.30
1570;DHT22;778;50.120;8.698;2022-07-23T15:14:38;29.20;63.40
1570;DHT22;778;50.120;8.698;2022-07-23T15:17:07;29.20;60.20
1570;DHT22;778;50.120;8.698;2022-07-23T15:19:36;29.20;61.10
1570;DHT22;778;50.120;8.698;2022-07-23T15:22:05;29.30;59.80
1570;DHT22;778;50.120;8.698;2022-07-23T15:24:35;29.30;59.20
1570;DHT22;778;50.120;8.698;2022-07-23T15:27:04;29.40;59.90
1570;DHT22;778;50.120;8.698;2022-07-23T15:29:33;29.30;59.20
1570;DHT22;778;50.120;8.698;2022-07-23T15:32:03;29.20;60.70
1570;DHT22;778;50.120;8.698;2022-07-23T15:34:32;29.30;58.70
1570;DHT22;778;50.120;8.698;2022-07-23T15:37:03;29.30;58.10
1570;DHT22;778;50.120;8.698;2022-07-23T15:39:39;29.20;58.70
1570;DHT22;778;50.120;8.698;2022-07-23T15:42:07;29.10;58.10
1570;DHT22;778;50.120;8.698;2022-07-23T15:44:56;29.10;57.30
1570;DHT22;778;50.120;8.698;2022-07-23T15:47:25;29.10;57.90
1570;DHT22;778;50.120;8.698;2022-07-23T15:49:53;29.30;58.60
1570;DHT22;778;50.120;8.698;2022-07-23T15:52:22;29.30;58.50
1570;DHT22;778;50.120;8.698;2022-07-23T15:54:52;29.40;56.40
1570;DHT22;778;50.120;8.698;2022-07-23T15:57:21;29.40;58.80
1570;DHT22;778;50.120;8.698;2022-07-23T15:59:49;29.50;56.90
1570;DHT22;778;50.120;8.698;2022-07-23T16:02:18;29.40;56.10
1570;DHT22;778;50.120;8.698;2022-07-23T16:04:48;29.30;57.70
1570;DHT22;778;50.120;8.698;2022-07-23T16:07:18;29.20;56.90
1570;DHT22;778;50.120;8.698;2022-07-23T16:09:46;29.10;59.20
1570;DHT22;778;50.120;8.698;2022-07-23T16:12:16;29.40;58.10
1570;DHT22;778;50.120;8.698;2022-07-23T16:14:45;29.40;57.30
1570;DHT22;778;50.120;8.698;2022-07-23T16:17:13;29.30;56.10
1570;DHT22;778;50.120;8.698;2022-07-23T16:19:42;29.40;56.20
1570;DHT22;778;50.120;8.698;2022-07-23T16:22:13;29.30;55.50
1570;DHT22;778;50.120;8.698;2022-07-23T16:24:42;29.30;56.20
1570;DHT22;778;50.120;8.698;2022-07-23T16:27:11;29.30;55.90
1570;DHT22;778;50.120;8.698;2022-07-23T16:29:41;29.20;57.50
1570;DHT22;778;50.120;8.698;2022-07-23T16:32:10;29.20;57.00
1570;DHT22;778;50.120;8.698;2022-07-23T16:34:38;29.20;55.10
1570;DHT22;778;50.120;8.698;2022-07-23T16:37:08;29.00;57.00
1570;DHT22;778;50.120;8.698;2022-07-23T16:39:37;29.00;58.00
1570;DHT22;778;50.120;8.698;2022-07-23T16:42:06;29.10;57.40
1570;DHT22;778;50.120;8.698;2022-07-23T16:44:35;29.10;57.00
1570;DHT22;778;50.120;8.698;2022-07-23T16:47:06;29.10;56.00